Oklahoma City, Oklahoma
Current Conditions -  °F | °C
As of 3:52 PM on Monday 26 Jan 2015 (Local Time) from KOKC Reporting Station
Few Clouds Few Clouds  
Wind Chill: 76°   Ceiling: Unl
Heat Index: 76°   Visibility: 10mi
Dew Point: 30°   Wind: 16mph
Humidity: 19%   Direction: 320°NW
Pressure: 30.03"   Gusts: NA
Location:  35.47°N, 97.52°W
Report Text: KOKC 262152Z 32014KT 10SM FEW250 24/M01 A3003 RMK AO2 SLP165 T02441011
Loading
Personal Weather Stations






























Interactive Weather Map New forecast layout! Learn more

10-Day Weather Forecast

Advertisements
Track Severe Weather on mobile